Terminal Aerodrome Forecast
Issued by NWS North Platte, NE

Home | Current Version | Previous Version | Text Only | Print | Product List | Glossary Off
Versions: 1 2 3 4 5 6 7 8 9 10 11 12

561
FTUS43 KLBF 241333 AAB
TAFVTN
TAF AMD
KVTN 241333Z 2414/2512 36013G20KT P6SM SCT020 OVC100
     FM242100 34012KT P6SM BKN250
     FM250000 34006KT P6SM BKN250=

USA.gov is the U.S. government's official web portal to all federal, state and local government web resources and services.